Time;durP1;ratioP1;P1;durP2;ratioP2;P2;SDS_P1;SDS_P2;PMS_P1;PMS_P2;Temp;Humidity;BMP_temperature;BMP_pressure;BME280_temperature;BME280_humidity;BME280_pressure;Samples;Min_cycle;Max_cycle;Signal;HPM_P1;HPM_P2
2021/07/15 00:01:36;;;;;;;4.60;2.83;;;;;;;15.84;50.68;94985.19;5008318;28;20060;-67
2021/07/15 00:04:02;;;;;;;2.38;1.77;;;;;;;15.84;50.84;94993.25;5008590;28;20041;-67
2021/07/15 00:06:27;;;;;;;2.22;1.95;;;;;;;15.93;50.51;94991.88;5006320;28;20077;-67
2021/07/15 00:08:56;;;;;;;0.90;0.90;;;;;;;15.96;50.62;95004.00;5006651;28;20026;-67
2021/07/15 00:11:24;;;;;;;0.93;0.93;;;;;;;15.92;50.73;95008.19;4990539;28;20018;-67
2021/07/15 00:13:49;;;;;;;1.20;1.20;;;;;;;15.93;50.78;95015.19;5008084;28;20049;-67
2021/07/15 00:16:15;;;;;;;1.70;1.00;;;;;;;15.94;50.78;95017.66;5008229;28;20052;-67
2021/07/15 00:18:43;;;;;;;1.40;1.30;;;;;;;16.00;50.33;95019.44;5007664;28;20076;-67
2021/07/15 00:21:10;;;;;;;;;;;;;;;15.96;50.65;95023.63;4994948;28;20058;-67
2021/07/15 00:23:35;;;;;;;4.22;1.40;;;;;;;16.03;50.56;95020.84;5008392;28;19920;-67
2021/07/15 00:26:04;;;;;;;1.40;1.40;;;;;;;15.99;50.52;95027.72;5007779;28;20041;-67
2021/07/15 00:28:29;;;;;;;3.63;2.05;;;;;;;15.94;50.80;95027.59;5008737;28;20044;-67
2021/07/15 00:30:55;;;;;;;1.85;1.75;;;;;;;16.02;50.63;95029.13;5008454;28;20034;-67
2021/07/15 00:33:20;;;;;;;1.70;1.60;;;;;;;16.00;50.53;95030.19;5006372;28;20123;-67
2021/07/15 00:35:46;;;;;;;3.42;2.20;;;;;;;15.95;50.58;95035.38;5008081;28;20751;-67
2021/07/15 00:38:11;;;;;;;2.45;1.70;;;;;;;15.98;50.87;95032.25;5007626;28;20042;-67
2021/07/15 00:40:37;;;;;;;1.85;1.75;;;;;;;16.02;50.87;95031.81;5011783;28;20471;-67
2021/07/15 00:43:03;;;;;;;1.60;1.50;;;;;;;16.04;50.66;95032.41;5010343;28;20041;-67
2021/07/15 00:45:28;;;;;;;1.70;1.60;;;;;;;16.08;50.63;95034.41;5011947;28;20325;-67
2021/07/15 00:47:53;;;;;;;1.27;1.17;;;;;;;16.02;50.71;95034.50;5012460;28;20044;-67
2021/07/15 00:50:20;;;;;;;1.80;0.80;;;;;;;16.11;50.39;95033.94;5012097;28;20030;-67
2021/07/15 00:52:46;;;;;;;0.40;0.40;;;;;;;16.06;50.42;95027.63;5010187;28;20080;-67
2021/07/15 00:55:14;;;;;;;1.77;1.13;;;;;;;16.00;50.59;95022.13;5011305;28;20489;-67
2021/07/15 00:57:39;;;;;;;1.15;1.05;;;;;;;15.97;50.63;95024.44;5011602;28;20060;-67
2021/07/15 01:00:07;;;;;;;0.77;0.70;;;;;;;16.02;50.55;95024.59;5011407;28;20022;-67
2021/07/15 01:02:32;;;;;;;0.77;0.50;;;;;;;16.02;50.59;95026.44;5009881;28;20372;-67
2021/07/15 01:04:58;;;;;;;1.92;0.70;;;;;;;16.07;50.56;95037.31;5010655;28;20033;-67
2021/07/15 01:07:23;;;;;;;0.40;0.40;;;;;;;16.11;50.27;95028.59;5007135;28;20514;-67
2021/07/15 01:09:48;;;;;;;1.23;0.90;;;;;;;16.13;49.84;95028.34;5011339;28;20088;-67
2021/07/15 01:12:43;;;;;;;8.93;5.80;;;;;;;16.09;50.12;95024.50;5011772;28;20061;-67
2021/07/15 01:15:11;;;;;;;12.60;7.22;;;;;;;15.95;50.33;95026.53;5011193;28;20558;-67
2021/07/15 01:17:42;;;;;;;;;;;;;;;15.73;50.95;95032.38;5011333;28;20045;-67
2021/07/15 01:20:30;;;;;;;9.15;5.88;;;;;;;15.69;50.97;95032.03;5011304;28;19917;-67
2021/07/15 01:23:29;;;;;;;3.80;2.50;;;;;;;15.73;51.14;95033.22;5010900;28;20037;-67
2021/07/15 01:26:01;;;;;;;1.60;1.50;;;;;;;15.83;50.87;95021.94;5009300;28;20034;-67
2021/07/15 01:28:54;;;;;;;1.00;1.00;;;;;;;15.90;50.64;95024.53;5009914;28;20034;-67
2021/07/15 01:31:19;;;;;;;0.75;0.75;;;;;;;16.05;50.19;95026.00;5008876;28;20539;-67
2021/07/15 01:33:45;;;;;;;2.03;1.80;;;;;;;15.99;50.60;95016.97;5009309;28;20037;-67
2021/07/15 01:36:12;;;;;;;2.17;2.00;;;;;;;16.00;50.17;95019.44;5009867;28;20049;-67
2021/07/15 01:38:42;;;;;;;1.63;1.52;;;;;;;16.02;50.35;95021.06;5010640;28;20107;-67
2021/07/15 01:41:16;;;;;;;2.45;2.25;;;;;;;15.97;50.49;95017.22;5009219;28;20030;-68
2021/07/15 01:43:43;;;;;;;1.30;1.30;;;;;;;16.00;50.29;95016.75;5009547;28;20048;-68
2021/07/15 01:46:09;;;;;;;9.85;2.05;;;;;;;16.02;50.20;95013.84;5008892;28;20034;-68
2021/07/15 01:48:35;;;;;;;1.77;1.40;;;;;;;16.04;50.13;95011.75;4990152;28;20022;-67
2021/07/15 01:51:01;;;;;;;1.52;1.42;;;;;;;16.06;50.02;95014.19;5009377;28;20509;-69
2021/07/15 01:53:26;;;;;;;1.85;1.73;;;;;;;16.07;50.07;95013.16;5010166;28;20034;-68
2021/07/15 01:55:52;;;;;;;2.05;1.73;;;;;;;16.09;49.60;95016.44;5009470;28;20117;-68
2021/07/15 01:58:17;;;;;;;2.05;1.70;;;;;;;16.04;50.02;95017.09;5009037;28;20030;-68
2021/07/15 02:00:43;;;;;;;1.70;1.60;;;;;;;16.03;50.13;95014.66;5008699;28;20051;-67
2021/07/15 02:03:08;;;;;;;1.70;1.60;;;;;;;16.06;50.00;95019.56;5008999;28;20034;-67
2021/07/15 02:05:34;;;;;;;2.08;1.98;;;;;;;16.03;50.09;95020.84;5010271;28;20092;-67
2021/07/15 02:08:00;;;;;;;2.40;2.03;;;;;;;15.98;50.18;95010.00;4989597;28;20051;-67
2021/07/15 02:10:26;;;;;;;1.90;1.80;;;;;;;15.94;50.17;95017.66;4992339;28;20057;-67
2021/07/15 02:12:52;;;;;;;5.00;1.95;;;;;;;15.99;50.15;95014.31;5009922;28;20592;-67
2021/07/15 02:15:18;;;;;;;1.90;1.80;;;;;;;15.95;50.33;95026.53;4990484;28;20046;-67
2021/07/15 02:17:43;;;;;;;3.58;2.15;;;;;;;16.00;50.27;95024.81;4990329;28;20040;-67
2021/07/15 02:20:11;;;;;;;2.58;2.38;;;;;;;16.05;50.15;95036.72;4970180;28;20031;-67
2021/07/15 02:22:36;;;;;;;2.70;2.50;;;;;;;16.07;50.01;95040.00;4983809;28;20060;-67
2021/07/15 02:25:04;;;;;;;3.83;2.85;;;;;;;16.06;50.00;95041.88;4990815;28;20483;-67
2021/07/15 02:27:29;;;;;;;2.80;2.60;;;;;;;16.04;49.98;95035.09;4990794;28;20050;-67
2021/07/15 02:29:55;;;;;;;2.42;2.25;;;;;;;16.00;50.15;95029.34;4972733;28;20399;-67
2021/07/15 02:32:20;;;;;;;2.85;2.55;;;;;;;16.01;50.03;95030.97;4990479;28;20679;-67
2021/07/15 02:34:50;;;;;;;2.65;2.45;;;;;;;15.98;50.02;95028.78;4988790;28;20057;-67
2021/07/15 02:37:16;;;;;;;2.50;2.30;;;;;;;16.00;49.85;95032.88;4988585;28;20034;-67
2021/07/15 02:39:42;;;;;;;2.47;2.28;;;;;;;15.99;49.92;95028.56;4972941;28;20751;-67
2021/07/15 02:42:07;;;;;;;5.80;3.13;;;;;;;15.95;49.65;95021.97;4988553;28;20049;-67
2021/07/15 02:44:33;;;;;;;3.92;3.17;;;;;;;15.86;49.77;95026.84;4990174;28;20442;-67
2021/07/15 02:46:59;;;;;;;4.47;2.20;;;;;;;15.91;49.72;95022.69;4988373;28;20083;-67
2021/07/15 02:49:24;;;;;;;3.78;2.03;;;;;;;15.95;49.65;95030.03;4988428;28;20092;-67
2021/07/15 02:51:49;;;;;;;2.50;2.08;;;;;;;15.95;49.60;95030.03;4990138;28;20053;-67
2021/07/15 02:54:15;;;;;;;2.47;2.20;;;;;;;15.94;49.61;95027.59;4989500;28;20369;-67
2021/07/15 02:57:02;;;;;;;2.88;2.13;;;;;;;15.74;49.91;95040.19;4988161;28;20061;-67
2021/07/15 02:59:46;;;;;;;3.20;2.87;;;;;;;15.68;50.29;95042.97;4974298;28;20099;-67
2021/07/15 03:02:19;;;;;;;2.33;2.10;;;;;;;15.73;50.15;95040.44;4972287;28;20030;-67
2021/07/15 03:04:50;;;;;;;1.92;1.83;;;;;;;15.75;50.12;95033.78;4988081;28;20034;-67
2021/07/15 03:07:15;;;;;;;2.05;1.80;;;;;;;15.81;50.20;95037.44;4988875;28;20046;-67
2021/07/15 03:09:40;;;;;;;1.95;1.70;;;;;;;15.82;50.04;95035.56;4988192;28;20052;-67
2021/07/15 03:12:14;;;;;;;2.05;1.95;;;;;;;15.80;50.11;95040.34;4971780;28;20030;-67
2021/07/15 03:14:41;;;;;;;1.80;1.70;;;;;;;15.77;50.05;95046.19;4972557;28;20053;-68
2021/07/15 03:17:07;;;;;;;1.80;1.70;;;;;;;15.77;50.04;95046.19;4971759;28;20036;-68
2021/07/15 03:19:33;;;;;;;2.00;1.90;;;;;;;15.82;50.00;95038.25;4973316;28;20034;-68
2021/07/15 03:21:59;;;;;;;1.80;1.70;;;;;;;15.78;49.98;95034.38;4973369;28;20069;-68
2021/07/15 03:24:26;;;;;;;3.17;2.00;;;;;;;15.86;49.53;95031.41;4989367;28;20486;-68
2021/07/15 03:26:51;;;;;;;8.65;6.88;;;;;;;15.67;49.82;95034.09;4971701;28;20093;-68
2021/07/15 03:29:16;;;;;;;3.60;3.00;;;;;;;15.56;50.18;95048.25;4987551;28;20459;-68
2021/07/15 03:31:42;;;;;;;3.53;2.10;;;;;;;15.59;49.75;95063.91;4987803;28;20018;-68
2021/07/15 03:34:07;;;;;;;4.90;2.10;;;;;;;15.55;50.19;95068.88;4989007;28;20154;-68
2021/07/15 03:36:33;;;;;;;2.28;2.00;;;;;;;15.44;50.20;95064.25;4971758;28;20026;-68
2021/07/15 03:38:58;;;;;;;6.07;2.63;;;;;;;15.52;50.06;95073.84;4987944;28;20038;-68
2021/07/15 03:41:24;;;;;;;3.28;2.78;;;;;;;15.57;49.46;95066.81;4987568;28;20037;-67
2021/07/15 03:43:49;;;;;;;2.63;2.42;;;;;;;15.32;50.21;95066.84;4987895;28;20522;-67
2021/07/15 03:46:15;;;;;;;4.45;2.60;;;;;;;15.15;50.58;95072.78;4989117;28;20044;-67
2021/07/15 03:48:42;;;;;;;2.35;2.15;;;;;;;15.30;50.48;95076.97;4955368;28;20023;-67
2021/07/15 03:51:11;;;;;;;2.30;2.10;;;;;;;15.40;50.44;95084.53;4971345;28;20061;-67
2021/07/15 03:53:42;;;;;;;3.15;1.95;;;;;;;15.44;50.31;95091.88;4987697;28;20045;-67
2021/07/15 03:56:08;;;;;;;2.08;1.98;;;;;;;15.58;50.30;95094.47;4988113;28;20108;-67
2021/07/15 03:58:39;;;;;;;3.90;2.50;;;;;;;15.64;50.06;95088.22;4987016;28;20129;-67
2021/07/15 04:01:04;;;;;;;1.95;1.75;;;;;;;15.73;49.68;95092.25;4971337;28;20460;-67
2021/07/15 04:03:30;;;;;;;1.60;1.50;;;;;;;15.73;49.80;95100.28;4986656;28;20184;-67
2021/07/15 04:05:55;;;;;;;1.70;1.60;;;;;;;15.84;49.54;95092.53;4978510;28;20407;-67
2021/07/15 04:08:21;;;;;;;1.85;1.52;;;;;;;15.75;49.51;95087.44;4990219;28;20088;-67
2021/07/15 04:10:48;;;;;;;1.30;1.30;;;;;;;15.78;49.51;95083.53;4990339;28;20049;-67
2021/07/15 04:13:13;;;;;;;1.98;1.25;;;;;;;15.78;49.50;95088.06;4988599;28;20365;-67
2021/07/15 04:15:51;;;;;;;1.63;1.20;;;;;;;15.83;49.60;95096.25;4988811;28;20061;-67
2021/07/15 04:18:17;;;;;;;1.27;1.17;;;;;;;15.85;49.37;95094.19;4988657;28;20039;-67
2021/07/15 04:20:43;;;;;;;1.85;1.40;;;;;;;15.88;49.68;95105.28;4986788;28;20088;-67
2021/07/15 04:23:08;;;;;;;1.92;1.10;;;;;;;15.92;49.68;95105.66;4970925;28;20050;-67
2021/07/15 04:25:33;;;;;;;4.10;1.50;;;;;;;15.95;49.77;95110.56;4970480;28;20391;-67
2021/07/15 04:27:59;;;;;;;1.40;1.30;;;;;;;16.04;49.60;95099.53;4986804;28;20061;-67
2021/07/15 04:30:25;;;;;;;1.92;1.40;;;;;;;16.11;48.73;95105.63;4986486;28;20117;-67
2021/07/15 04:32:53;;;;;;;1.25;1.15;;;;;;;16.11;48.49;95106.44;4967189;28;20539;-67
2021/07/15 04:35:19;;;;;;;1.65;0.70;;;;;;;16.11;48.43;95101.06;4986522;28;20112;-67
2021/07/15 04:37:45;;;;;;;1.02;0.60;;;;;;;16.02;48.40;95107.81;4986545;28;20547;-67
2021/07/15 04:40:12;;;;;;;1.48;0.70;;;;;;;15.91;48.78;95108.56;4988474;28;20049;-67
2021/07/15 04:42:38;;;;;;;1.65;1.08;;;;;;;15.97;48.89;95113.84;4987926;28;20037;-67
2021/07/15 04:45:04;;;;;;;0.73;0.55;;;;;;;16.11;48.68;95121.72;4987517;28;20038;-67
2021/07/15 04:47:30;;;;;;;0.70;0.70;;;;;;;16.04;48.54;95129.06;4987578;28;20062;-67
2021/07/15 04:49:55;;;;;;;3.72;1.25;;;;;;;16.10;48.76;95122.78;4987980;28;20069;-68
2021/07/15 04:52:20;;;;;;;0.70;0.70;;;;;;;16.24;48.51;95121.56;4988522;28;20081;-68
2021/07/15 04:54:46;;;;;;;0.80;0.80;;;;;;;16.33;48.38;95115.88;4969498;28;20042;-68
2021/07/15 04:57:12;;;;;;;0.75;0.75;;;;;;;16.39;48.29;95118.50;4985386;28;20038;-68
2021/07/15 04:59:38;;;;;;;0.70;0.70;;;;;;;16.49;47.91;95126.00;4970862;28;20034;-68
2021/07/15 05:02:04;;;;;;;0.65;0.65;;;;;;;16.59;47.55;95120.09;4986599;28;20820;-68
2021/07/15 05:04:29;;;;;;;1.30;1.20;;;;;;;16.65;47.25;95121.03;4977503;28;20083;-68
2021/07/15 05:06:56;;;;;;;1.00;0.90;;;;;;;16.69;47.03;95124.91;4985620;28;20050;-68
2021/07/15 05:09:21;;;;;;;7.85;3.70;;;;;;;16.74;46.89;95119.69;4987867;28;20560;-68
2021/07/15 05:11:47;;;;;;;1.23;1.00;;;;;;;16.78;47.23;95122.72;4988329;28;20110;-68
2021/07/15 05:14:12;;;;;;;0.80;0.80;;;;;;;16.83;47.41;95130.09;4985890;28;20039;-68
2021/07/15 05:16:37;;;;;;;1.77;0.70;;;;;;;16.94;47.26;95132.00;4988136;28;20030;-67
2021/07/15 05:19:03;;;;;;;0.95;0.73;;;;;;;16.96;47.21;95124.50;4987410;28;20038;-67
2021/07/15 05:21:28;;;;;;;0.90;0.82;;;;;;;17.05;47.30;95125.00;4987484;28;20047;-67
2021/07/15 05:23:54;;;;;;;1.40;1.00;;;;;;;17.09;47.13;95117.28;4987955;28;20034;-69
2021/07/15 05:26:19;;;;;;;0.80;0.73;;;;;;;17.16;47.43;95112.66;4990919;28;20030;-68
2021/07/15 05:28:45;;;;;;;0.90;0.90;;;;;;;17.23;47.45;95117.94;4991521;28;20464;-68
2021/07/15 05:31:10;;;;;;;0.70;0.70;;;;;;;17.31;47.07;95114.06;4991161;28;20034;-68
2021/07/15 05:33:36;;;;;;;0.70;0.70;;;;;;;17.43;46.91;95112.19;4991483;28;20034;-68
2021/07/15 05:36:01;;;;;;;1.88;1.20;;;;;;;17.57;46.56;95111.97;4991667;28;20037;-68
2021/07/15 05:38:27;;;;;;;1.23;1.13;;;;;;;17.60;46.25;95115.00;4991367;28;20078;-68
2021/07/15 05:40:52;;;;;;;1.70;1.60;;;;;;;17.56;46.18;95113.81;4991691;28;20038;-68
2021/07/15 05:43:18;;;;;;;1.38;0.90;;;;;;;17.63;46.07;95111.00;4973594;28;20432;-68
2021/07/15 05:45:43;;;;;;;1.70;1.60;;;;;;;17.54;46.27;95122.13;4990628;28;20061;-68
2021/07/15 05:48:09;;;;;;;0.95;0.90;;;;;;;17.55;45.93;95114.88;4991481;28;20045;-68
2021/07/15 05:50:34;;;;;;;2.08;1.20;;;;;;;17.55;46.19;95114.88;4990854;28;20030;-68
2021/07/15 05:52:59;;;;;;;1.67;1.30;;;;;;;17.50;46.04;95112.88;4991255;28;20039;-68
2021/07/15 05:55:25;;;;;;;1.80;1.70;;;;;;;17.52;45.88;95118.03;4990237;28;20090;-68
2021/07/15 05:57:50;;;;;;;1.45;1.35;;;;;;;17.51;46.34;95119.09;4990060;28;20062;-67
2021/07/15 06:00:16;;;;;;;1.98;1.73;;;;;;;17.57;46.30;95130.81;4990665;28;20045;-67
2021/07/15 06:02:42;;;;;;;1.60;1.50;;;;;;;17.64;46.49;95143.06;4990764;28;20128;-67
2021/07/15 06:05:07;;;;;;;4.03;2.30;;;;;;;17.72;46.17;95139.22;4979394;28;20034;-67
2021/07/15 06:07:35;;;;;;;3.03;2.30;;;;;;;17.79;45.54;95145.28;4989833;28;20478;-67
2021/07/15 06:10:00;;;;;;;;;;;;;;;17.78;45.88;95137.47;4999309;28;20435;-67
2021/07/15 06:12:26;;;;;;;3.33;2.30;;;;;;;17.96;45.67;95138.38;5009319;28;19953;-67
2021/07/15 06:14:51;;;;;;;2.10;1.90;;;;;;;17.96;45.60;95135.69;5009708;28;20042;-68
2021/07/15 06:17:16;;;;;;;1.60;1.50;;;;;;;18.12;45.53;95143.03;5017222;28;20030;-68
2021/07/15 06:19:42;;;;;;;1.85;1.38;;;;;;;18.27;44.89;95152.47;5010079;28;20068;-68
2021/07/15 06:22:07;;;;;;;1.42;1.33;;;;;;;18.36;45.23;95151.03;5009819;28;20102;-68
2021/07/15 06:24:33;;;;;;;1.65;1.10;;;;;;;18.44;44.51;95156.06;5009938;28;20083;-68
2021/07/15 06:26:58;;;;;;;0.77;0.77;;;;;;;18.66;44.28;95163.50;5009963;28;20117;-68
2021/07/15 06:29:24;;;;;;;8.90;5.93;;;;;;;18.56;44.06;95160.59;5010240;28;20084;-68
2021/07/15 06:31:49;;;;;;;9.88;8.00;;;;;;;18.32;44.28;95163.34;5001680;28;20025;-68
2021/07/15 06:34:15;;;;;;;9.55;7.60;;;;;;;18.39;44.40;95165.94;5004457;28;20042;-68
2021/07/15 06:36:42;;;;;;;9.40;7.90;;;;;;;18.41;44.42;95161.09;5003917;28;20026;-68
2021/07/15 06:39:08;;;;;;;10.70;8.77;;;;;;;18.38;44.24;95161.56;5004277;28;20037;-68
2021/07/15 06:41:33;;;;;;;13.18;11.70;;;;;;;18.36;44.80;95166.41;5005867;28;20052;-68
2021/07/15 06:43:59;;;;;;;13.40;11.05;;;;;;;18.44;44.08;95155.25;5004791;28;20095;-68
2021/07/15 06:46:27;;;;;;;11.48;9.18;;;;;;;18.49;44.27;95154.53;5003274;28;20060;-66
2021/07/15 06:48:52;;;;;;;13.43;11.23;;;;;;;18.55;43.62;95165.16;5002022;28;20048;-69
2021/07/15 06:51:19;;;;;;;15.50;11.23;;;;;;;18.60;44.22;95163.66;5006489;28;20427;-68
2021/07/15 06:53:45;;;;;;;21.05;11.70;;;;;;;18.61;43.99;95165.28;5002358;28;20044;-70
2021/07/15 06:56:11;;;;;;;13.07;10.63;;;;;;;18.77;43.98;95164.50;5011074;28;20141;-68
2021/07/15 06:58:36;;;;;;;20.23;13.52;;;;;;;18.74;43.52;95159.63;5001956;28;20325;-69
2021/07/15 07:01:01;;;;;;;19.92;12.77;;;;;;;18.77;43.30;95164.50;5005308;28;20585;-70
2021/07/15 07:03:27;;;;;;;16.70;13.55;;;;;;;18.84;42.95;95168.94;4998689;28;20522;-69
2021/07/15 07:05:53;;;;;;;15.93;12.45;;;;;;;18.70;43.09;95163.84;5010356;28;20388;-70
2021/07/15 07:08:18;;;;;;;17.50;11.80;;;;;;;18.64;43.64;95171.03;5002580;28;20442;-68
2021/07/15 07:10:43;;;;;;;14.80;11.43;;;;;;;18.72;43.51;95175.19;5002990;28;20523;-67
2021/07/15 07:13:09;;;;;;;15.02;11.75;;;;;;;18.80;43.28;95174.81;5003563;28;20710;-67
2021/07/15 07:15:34;;;;;;;18.08;10.80;;;;;;;18.89;42.54;95174.41;5003430;28;20030;-66
2021/07/15 07:18:00;;;;;;;8.32;4.82;;;;;;;18.87;42.55;95171.94;5005899;28;20054;-66
2021/07/15 07:20:25;;;;;;;2.97;2.55;;;;;;;18.43;42.92;95173.28;5002677;28;20106;-66
2021/07/15 07:22:51;;;;;;;3.80;3.35;;;;;;;18.43;44.11;95177.88;5001740;28;20041;-67
2021/07/15 07:25:16;;;;;;;35.13;17.58;;;;;;;18.92;43.39;95179.31;5002664;28;20090;-67
2021/07/15 07:27:42;;;;;;;48.17;19.58;;;;;;;19.28;42.53;95176.47;5003502;28;20109;-67
2021/07/15 07:30:09;;;;;;;38.67;20.20;;;;;;;19.45;42.06;95176.47;5009190;28;20092;-67
2021/07/15 07:32:34;;;;;;;28.35;18.00;;;;;;;19.72;41.61;95182.00;5011583;28;20034;-67
2021/07/15 07:35:00;;;;;;;23.83;12.43;;;;;;;19.98;40.78;95189.66;5002313;28;20029;-67
2021/07/15 07:37:28;;;;;;;20.10;10.02;;;;;;;20.27;39.61;95197.63;5002333;28;20042;-66
2021/07/15 07:39:53;;;;;;;11.88;7.35;;;;;;;20.32;39.26;95192.28;5002416;28;20458;-67
2021/07/15 07:42:19;;;;;;;43.58;17.75;;;;;;;20.29;39.42;95191.97;5002059;28;20061;-67
2021/07/15 07:44:44;;;;;;;35.03;16.95;;;;;;;20.24;40.13;95203.53;5002057;28;20422;-67
2021/07/15 07:47:10;;;;;;;47.42;20.45;;;;;;;20.18;40.04;95194.53;5011183;28;20349;-66
2021/07/15 07:49:35;;;;;;;66.22;21.08;;;;;;;20.16;40.70;95195.84;5005373;28;20045;-66
2021/07/15 07:52:02;;;;;;;63.38;24.50;;;;;;;20.26;39.60;95200.59;5000527;28;20502;-67
2021/07/15 07:54:28;;;;;;;62.92;22.08;;;;;;;20.13;40.85;95190.94;5001641;28;20046;-68
2021/07/15 07:56:53;;;;;;;25.73;11.88;;;;;;;20.03;40.71;95197.88;5001008;28;20479;-68
2021/07/15 07:59:18;;;;;;;29.45;13.23;;;;;;;19.95;41.12;95200.94;5002071;28;20033;-67
2021/07/15 08:01:44;;;;;;;22.05;11.23;;;;;;;20.06;40.94;95201.94;5009659;28;20053;-67
2021/07/15 08:04:09;;;;;;;32.58;14.93;;;;;;;20.13;40.78;95212.56;4999242;28;20029;-68
2021/07/15 08:06:36;;;;;;;7.32;3.63;;;;;;;19.84;41.39;95208.09;5000633;28;20049;-67
2021/07/15 08:09:11;;;;;;;29.50;12.15;;;;;;;19.63;41.44;95212.34;5002226;28;20099;-68
2021/07/15 08:11:37;;;;;;;1.77;0.60;;;;;;;19.36;41.62;95211.13;4985044;28;20046;-67
2021/07/15 08:14:02;;;;;;;0.70;0.70;;;;;;;19.19;42.15;95211.09;5010505;28;20485;-67
2021/07/15 08:16:28;;;;;;;7.55;3.28;;;;;;;19.36;42.53;95213.00;5001515;28;20046;-66
2021/07/15 08:18:54;;;;;;;4.32;2.53;;;;;;;19.46;41.75;95203.22;5001859;28;20042;-68
2021/07/15 08:21:19;;;;;;;17.00;6.72;;;;;;;18.84;43.30;95214.78;5001197;28;20048;-69
2021/07/15 08:23:45;;;;;;;40.40;17.75;;;;;;;19.07;42.94;95213.88;4991072;28;20118;-67
2021/07/15 08:26:10;;;;;;;56.95;18.85;;;;;;;19.45;42.11;95208.84;5000054;28;20053;-67
2021/07/15 08:28:36;;;;;;;44.35;18.35;;;;;;;19.80;41.10;95213.16;5009321;28;20708;-68
2021/07/15 08:31:01;;;;;;;43.55;16.83;;;;;;;19.81;41.52;95214.81;5002037;28;20407;-65
2021/07/15 08:33:27;;;;;;;60.97;18.90;;;;;;;19.95;41.41;95217.97;5001495;28;20117;-66
2021/07/15 08:35:52;;;;;;;21.58;9.20;;;;;;;20.27;40.68;95219.25;5001202;28;20503;-67
2021/07/15 08:38:19;;;;;;;10.93;5.10;;;;;;;20.57;40.11;95226.09;5001948;28;20365;-66
2021/07/15 08:40:45;;;;;;;;;;;;;;;20.52;39.82;95230.63;5000804;28;20617;-67
2021/07/15 08:43:10;;;;;;;38.23;21.13;;;;;;;20.72;39.31;95239.03;5011932;28;20340;-66
2021/07/15 08:45:36;;;;;;;28.10;9.93;;;;;;;20.57;39.58;95244.22;5004574;28;20045;-66
2021/07/15 08:48:01;;;;;;;34.20;8.82;;;;;;;20.37;40.06;95251.00;5000336;28;20034;-66
2021/07/15 08:50:28;;;;;;;26.60;14.45;;;;;;;20.64;37.36;95244.06;5001697;28;20048;-66
2021/07/15 08:52:53;;;;;;;26.97;10.10;;;;;;;20.35;39.76;95253.94;4999733;28;20032;-66
2021/07/15 08:58:07;;;;;;;18.30;8.13;;;;;;;20.57;38.75;95250.44;5025107;28;20033;-67
2021/07/15 09:00:33;;;;;;;24.98;9.57;;;;;;;20.75;39.08;95251.22;5004075;28;20111;-67
2021/07/15 09:02:58;;;;;;;11.77;5.40;;;;;;;21.18;38.46;95245.97;5003968;28;20125;-65
2021/07/15 09:05:23;;;;;;;20.83;8.15;;;;;;;21.38;37.96;95248.09;5004233;28;20038;-66
2021/07/15 09:07:50;;;;;;;18.20;8.60;;;;;;;21.55;37.73;95249.88;5003220;28;20054;-66
2021/07/15 09:10:15;;;;;;;10.77;5.50;;;;;;;21.56;36.56;95248.81;5003465;28;20034;-66
2021/07/15 09:12:41;;;;;;;15.68;7.07;;;;;;;21.82;36.81;95251.72;5002949;28;20036;-66
2021/07/15 09:15:11;;;;;;;8.05;4.57;;;;;;;22.12;36.67;95246.78;5002714;28;20537;-67
2021/07/15 09:17:37;;;;;;;14.05;4.47;;;;;;;22.35;36.22;95251.00;5009208;28;20075;-66
2021/07/15 09:20:22;;;;;;;7.90;4.25;;;;;;;22.52;36.02;95244.56;5008314;28;20029;-67
2021/07/15 09:23:04;;;;;;;9.63;4.30;;;;;;;22.58;35.88;95240.00;5008373;28;20088;-67
2021/07/15 09:25:41;;;;;;;10.38;2.92;;;;;;;22.78;35.15;95245.50;5006502;28;20238;-66
2021/07/15 09:28:12;;;;;;;12.00;4.13;;;;;;;22.85;35.36;95256.13;5035052;28;20025;-69
2021/07/15 09:30:39;;;;;;;3.90;1.52;;;;;;;22.56;35.85;95251.13;5005878;28;20060;-67
2021/07/15 09:33:08;;;;;;;6.37;2.03;;;;;;;22.65;36.29;95248.72;5007217;28;20026;-67
2021/07/15 09:35:35;;;;;;;1.15;1.02;;;;;;;22.50;35.91;95249.44;5005005;28;20092;-66
2021/07/15 09:38:10;;;;;;;7.10;2.40;;;;;;;22.10;36.89;95252.47;4996584;28;20030;-67
2021/07/15 09:40:37;;;;;;;2.67;1.83;;;;;;;21.40;38.19;95255.16;4985146;28;20519;-66
2021/07/15 09:43:21;;;;;;;5.97;1.83;;;;;;;22.11;36.59;95256.00;4983157;28;20043;-66
2021/07/15 09:45:51;;;;;;;7.38;2.70;;;;;;;22.52;36.17;95244.56;4985363;28;20042;-66
2021/07/15 09:48:22;;;;;;;4.40;2.00;;;;;;;22.79;35.38;95249.03;4984813;28;20160;-67
2021/07/15 09:50:52;;;;;;;5.18;2.55;;;;;;;22.87;34.97;95253.94;4994649;28;20038;-67
2021/07/15 09:53:22;;;;;;;3.90;2.70;;;;;;;22.98;35.03;95254.00;5003882;28;20041;-67
2021/07/15 09:55:56;;;;;;;11.30;5.38;;;;;;;23.06;35.13;95250.75;5003974;28;20049;-66
2021/07/15 09:58:22;;;;;;;11.05;5.20;;;;;;;23.11;34.10;95260.81;5028913;28;20088;-66
2021/07/15 10:00:48;;;;;;;4.13;2.58;;;;;;;23.06;33.95;95256.19;5011367;28;20034;-65
2021/07/15 10:03:15;;;;;;;8.20;3.10;;;;;;;22.87;34.74;95258.56;5007971;28;20050;-64
2021/07/15 10:05:54;;;;;;;11.10;4.15;;;;;;;22.94;34.10;95269.97;5008236;28;20499;-65
2021/07/15 10:08:26;;;;;;;9.43;3.00;;;;;;;22.91;33.82;95265.09;5016297;28;20049;-65
2021/07/15 10:10:52;;;;;;;8.65;4.35;;;;;;;22.86;33.86;95273.22;5005449;28;20038;-66
2021/07/15 10:13:20;;;;;;;7.67;4.30;;;;;;;22.96;34.90;95277.84;5005620;28;20508;-67
2021/07/15 10:15:46;;;;;;;8.15;3.47;;;;;;;23.09;34.69;95271.94;5004448;28;20030;-65
2021/07/15 10:18:12;;;;;;;9.00;3.72;;;;;;;22.95;34.72;95284.38;5008284;28;20040;-66
2021/07/15 10:20:37;;;;;;;6.43;2.70;;;;;;;23.08;34.15;95281.16;5009409;28;20026;-66
2021/07/15 10:23:03;;;;;;;8.15;3.72;;;;;;;23.08;33.78;95283.84;5008691;28;20095;-66
2021/07/15 10:25:28;;;;;;;9.75;4.57;;;;;;;23.04;34.63;95271.91;5008393;28;20034;-65
2021/07/15 10:27:54;;;;;;;3.53;1.85;;;;;;;23.22;34.55;95280.69;5009962;28;20148;-66
2021/07/15 10:30:19;;;;;;;21.52;11.77;;;;;;;23.24;33.69;95278.50;4996537;28;20072;-64
2021/07/15 10:32:45;;;;;;;8.43;4.63;;;;;;;23.05;34.21;95281.69;5007791;28;20029;-64
2021/07/15 10:35:15;;;;;;;14.35;7.70;;;;;;;22.98;34.80;95278.41;5004232;28;20042;-64
2021/07/15 10:37:43;;;;;;;10.35;5.43;;;;;;;22.91;34.46;95274.03;5006209;28;20092;-64
2021/07/15 10:40:13;;;;;;;13.00;7.28;;;;;;;22.84;34.43;95276.19;5005585;28;20531;-65
2021/07/15 10:42:38;;;;;;;19.02;9.75;;;;;;;22.90;34.76;95282.44;4999165;28;20034;-65
2021/07/15 10:45:05;;;;;;;16.17;8.30;;;;;;;22.86;34.33;95289.50;5009624;28;20044;-64
2021/07/15 10:47:31;;;;;;;;;;;;;;;22.99;34.94;95290.91;5005502;28;20048;-65
2021/07/15 10:49:56;;;;;;;8.47;4.80;;;;;;;23.05;34.15;95293.34;5002091;28;19926;-64
2021/07/15 10:52:23;;;;;;;14.17;5.70;;;;;;;23.05;34.16;95298.00;5005658;28;20049;-64
2021/07/15 10:54:48;;;;;;;9.05;5.63;;;;;;;23.10;34.12;95289.84;5003280;28;20034;-66
2021/07/15 10:57:17;;;;;;;23.73;10.10;;;;;;;22.92;34.95;95305.53;5009671;28;20037;-67
2021/07/15 10:59:42;;;;;;;16.30;10.02;;;;;;;22.97;34.85;95298.50;4991083;28;20843;-66
2021/07/15 11:02:24;;;;;;;9.63;4.43;;;;;;;22.70;35.89;95308.41;5008879;28;20046;-68
2021/07/15 11:04:50;;;;;;;11.15;5.05;;;;;;;22.76;35.23;95306.53;5003979;28;20038;-66
2021/07/15 11:07:20;;;;;;;11.95;4.55;;;;;;;22.83;35.10;95303.59;5005274;28;20141;-66
2021/07/15 11:09:46;;;;;;;13.68;6.43;;;;;;;22.12;36.21;95303.69;5005499;28;20037;-67
2021/07/15 11:12:36;;;;;;;15.13;4.88;;;;;;;21.92;36.28;95316.03;5005910;28;20138;-68
2021/07/15 11:15:05;;;;;;;13.48;5.85;;;;;;;21.83;36.17;95317.56;5007753;28;20641;-67
2021/07/15 11:17:31;;;;;;;20.00;8.05;;;;;;;21.88;36.57;95317.59;5005753;28;20106;-67
2021/07/15 11:20:07;;;;;;;18.40;3.75;;;;;;;21.79;36.81;95322.66;5005852;28;20213;-68
2021/07/15 11:22:50;;;;;;;35.47;7.73;;;;;;;21.53;37.18;95327.84;5004068;28;20661;-64
2021/07/15 11:25:28;;;;;;;22.17;4.07;;;;;;;21.75;37.37;95335.91;5004193;28;20121;-64
2021/07/15 11:28:17;;;;;;;16.17;4.05;;;;;;;21.88;36.59;95344.69;4996328;28;20448;-64
2021/07/15 11:30:53;;;;;;;7.22;3.83;;;;;;;22.17;36.58;95355.25;5008606;28;20556;-64
2021/07/15 11:33:19;;;;;;;19.65;4.95;;;;;;;22.25;36.05;95346.63;5004914;28;20032;-64
2021/07/15 11:35:54;;;;;;;16.05;5.45;;;;;;;22.42;36.16;95351.09;5005507;28;20033;-64